Suderau — V2BE1 — position and weather

sailwx.info

Track history (hours):
 
Tides and Currents Weather Stations Pressure Air Temp Water Temp Dewpoint Dewpoint Depression Visibility Wind Speed Wind Dir Waves Ship Positions

Suderau

Last reported at 2018-Jun-21 17:11 UTC. Time now 2018-Jun-21 18:10 UTC.
Position N 50°29' W 000°56'.

Length 88 m; draft 3.8 m.

Type: Cargo ship. MMSI: 304797000.

Date/timePositionNaut miles runAvg speedWind from/ knotsBaromVisibWave heightAir tempDewpointWater temp
2018-Jun-21 17:11N 50°29' W 000°56'3 9.0
2018-Jun-21 16:52N 50°30' W 000°51'3 8.6
2018-Jun-21 16:30N 50°30' W 000°46'4 8.0
2018-Jun-21 16:00N 50°30' W 000°40'4 7.2
2018-Jun-21 15:30N 50°31' W 000°34'14 7.5
2018-Jun-21 13:38N 50°31' W 000°12'7 8.4
2018-Jun-21 12:50N 50°32' W 000°02'3 9.0
2018-Jun-21 12:29N 50°33' E 000°03'5 9.4
2018-Jun-21 11:59N 50°34' E 000°10'510.0
2018-Jun-21 11:30N 50°36' E 000°18'510.6
2018-Jun-21 11:00N 50°37' E 000°25'510.9
2018-Jun-21 10:30N 50°39' E 000°34'510.8
2018-Jun-21 10:00N 50°42' E 000°41'510.6
2018-Jun-21 09:30N 50°45' E 000°48'510.2
2018-Jun-21 09:00N 50°48' E 000°55'5 9.7
2018-Jun-21 08:30N 50°50' E 001°01'5 9.3
2018-Jun-21 08:00N 50°53' E 001°07'4 8.8
2018-Jun-21 07:30N 50°56' E 001°12'4 8.4
2018-Jun-21 07:00N 50°59' E 001°17'4 7.7
2018-Jun-21 06:30N 51°01' E 001°22'4 7.2
2018-Jun-21 06:00N 51°04' E 001°26'4 7.3
2018-Jun-21 05:30N 51°06' E 001°30'4 7.4
2018-Jun-21 05:00N 51°08' E 001°35'4 7.7
2018-Jun-21 04:30N 51°11' E 001°40'4 8.0
2018-Jun-21 04:00N 51°14' E 001°44'5 9.3
2018-Jun-21 03:30N 51°17' E 001°48'5 9.9
2018-Jun-21 03:00N 51°22' E 001°52'510.6
2018-Jun-21 02:30N 51°26' E 001°57'510.6
2018-Jun-21 02:00N 51°30' E 002°02'510.7
2018-Jun-21 01:30N 51°34' E 002°08'510.5
2018-Jun-21 00:59N 51°38' E 002°14'510.3
2018-Jun-21 00:30N 51°42' E 002°20'5 9.8
2018-Jun-20 23:56N 51°45' E 002°26'30 7.9
2018-Jun-20 20:07N 52°03' E 003°06'2 7.4
2018-Jun-20 19:50N 52°03' E 003°09'8 7.1
2018-Jun-20 18:44N 52°04' E 003°22'2 7.2
2018-Jun-20 18:24N 52°03' E 003°26'4 7.4
2018-Jun-20 17:56N 52°03' E 003°31'3 7.6
2018-Jun-20 17:29N 52°03' E 003°37'4 8.0
2018-Jun-20 17:00N 52°03' E 003°43'4 8.3
2018-Jun-20 16:30N 52°03' E 003°50'4 7.4
2018-Jun-20 16:00N 52°02' E 003°55'510.6
2018-Jun-20 15:30N 51°60' E 004°03'611.6
2018-Jun-20 15:00N 51°57' E 004°11'611.4
2018-Jun-20 14:30N 51°54' E 004°19'4 8.3
2018-Jun-20 14:00N 51°54' E 004°26'0 0.4
2018-Jun-20 13:30N 51°54' E 004°26'0 0.0
2018-Jun-20 13:00N 51°54' E 004°26'0 0.0
2018-Jun-20 12:30N 51°54' E 004°26'0 0.0
2018-Jun-20 12:00N 51°54' E 004°26'0 0.0
2018-Jun-20 11:30N 51°54' E 004°26'0 0.0
2018-Jun-20 11:00N 51°54' E 004°26'0 0.0
2018-Jun-20 10:30N 51°54' E 004°26'0 0.0
2018-Jun-20 10:00N 51°54' E 004°26'0 0.0
2018-Jun-20 09:30N 51°54' E 004°26'0 0.0
2018-Jun-20 09:00N 51°54' E 004°26'0 0.0
2018-Jun-20 08:27N 51°54' E 004°26'0 0.0
2018-Jun-20 07:57N 51°54' E 004°26'0 0.0
2018-Jun-20 07:30N 51°54' E 004°26'0 0.0
2018-Jun-20 07:00N 51°54' E 004°26'0 0.0
2018-Jun-20 06:30N 51°54' E 004°26'0 0.0
2018-Jun-20 06:00N 51°54' E 004°26'0 0.0
2018-Jun-20 05:30N 51°54' E 004°26'0 0.0
2018-Jun-20 05:00N 51°54' E 004°26'0 0.0
2018-Jun-20 04:30N 51°54' E 004°26'0 0.0
2018-Jun-20 04:00N 51°54' E 004°26'0 0.0
2018-Jun-20 03:29N 51°54' E 004°26'0 0.0
2018-Jun-20 03:00N 51°54' E 004°26'0 0.4
2018-Jun-20 02:30N 51°54' E 004°26'3 5.5
2018-Jun-20 02:00N 51°54' E 004°22'4 8.5
2018-Jun-20 01:30N 51°55' E 004°15'4 8.1
2018-Jun-20 01:00N 51°57' E 004°10'4 7.4
2018-Jun-20 00:30N 51°59' E 004°04'4 7.7
2018-Jun-20 00:00N 51°60' E 003°58'5 9.9
2018-Jun-19 23:30N 51°59' E 003°50'5 9.9
2018-Jun-19 22:57N 51°58' E 003°42'510.2
2018-Jun-19 22:30N 51°57' E 003°35'510.3
2018-Jun-19 22:00N 51°55' E 003°27'510.3
2018-Jun-19 21:29N 51°51' E 003°21'711.2
2018-Jun-19 20:53N 51°45' E 003°16'410.5
2018-Jun-19 20:30N 51°42' E 003°13'611.6
2018-Jun-19 19:59N 51°36' E 003°11'611.4
2018-Jun-19 19:25N 51°31' E 003°05'511.5
2018-Jun-19 18:57N 51°28' E 002°57'511.9
2018-Jun-19 18:30N 51°25' E 002°50'611.3
2018-Jun-19 17:59N 51°21' E 002°44'611.4
2018-Jun-19 17:30N 51°16' E 002°40'611.3
2018-Jun-19 17:00N 51°11' E 002°36'611.2
2018-Jun-19 16:28N 51°06' E 002°30'511.6
2018-Jun-19 15:59N 51°04' E 002°22'1 2.5
2018-Jun-19 15:26N 51°03' E 002°21'3 5.5
2018-Jun-19 14:58N 51°03' E 002°17'0 0.0
2018-Jun-19 14:25N 51°03' E 002°17'0 0.0
2018-Jun-19 13:40N 51°03' E 002°17'0 0.0
2018-Jun-19 13:28N 51°03' E 002°17'0 0.0
2018-Jun-19 12:58N 51°03' E 002°17'0 0.0
2018-Jun-19 12:13N 51°03' E 002°17'0 0.0
2018-Jun-19 11:46N 51°03' E 002°17'0 0.0
2018-Jun-19 11:25N 51°03' E 002°17'0 0.0
2018-Jun-19 10:43N 51°03' E 002°17'0 0.0
2018-Jun-19 10:28N 51°03' E 002°17'0 0.0
2018-Jun-19 09:49N 51°03' E 002°17'0 0.0
2018-Jun-19 09:16N 51°03' E 002°17'0 0.0
2018-Jun-19 08:52N 51°03' E 002°17'0 0.0
2018-Jun-19 07:55N 51°03' E 002°17'0 0.0
2018-Jun-19 07:19N 51°03' E 002°17'0 0.0
2018-Jun-19 06:46N 51°03' E 002°17'0 0.0
2018-Jun-19 05:34N 51°03' E 002°17'0 0.0
2018-Jun-19 05:25N 51°03' E 002°17'0 0.0
2018-Jun-19 04:58N 51°03' E 002°17'0 0.0
2018-Jun-19 03:13N 51°03' E 002°17'0 0.0
2018-Jun-19 02:58N 51°03' E 002°17'0 0.0
2018-Jun-19 02:04N 51°03' E 002°17'0 0.0
2018-Jun-19 00:28N 51°03' E 002°17'0 0.0
2018-Jun-18 23:46N 51°03' E 002°17'0 0.0
2018-Jun-18 22:34N 51°03' E 002°17'0 0.0
2018-Jun-18 22:28N 51°03' E 002°17'0 0.0
2018-Jun-18 21:46N 51°03' E 002°17'0 0.0
2018-Jun-18 21:10N 51°03' E 002°17'0 0.0
2018-Jun-18 20:58N 51°03' E 002°17'0 0.0
2018-Jun-18 20:28N 51°03' E 002°17'0 0.0
2018-Jun-18 19:55N 51°03' E 002°17'0 0.0
2018-Jun-18 18:55N 51°03' E 002°17'0 0.0
2018-Jun-18 18:28N 51°03' E 002°17'0 0.0
2018-Jun-18 17:10N 51°03' E 002°17'0 0.0
2018-Jun-18 16:58N 51°03' E 002°17'0 0.0
2018-Jun-18 16:28N 51°03' E 002°17'0 0.0
2018-Jun-18 15:58N 51°03' E 002°17'0 0.0
2018-Jun-18 15:04N 51°03' E 002°17'0 0.0
2018-Jun-18 14:58N 51°03' E 002°17'0 0.0
2018-Jun-18 14:28N 51°03' E 002°17'0 0.0
2018-Jun-18 13:55N 51°03' E 002°17'0 0.0
2018-Jun-18 13:10N 51°03' E 002°17'0 0.0
2018-Jun-18 12:55N 51°03' E 002°17'0 0.0
2018-Jun-18 12:10N 51°03' E 002°17'0 0.0
2018-Jun-18 11:49N 51°03' E 002°17'0 0.0
2018-Jun-18 11:25N 51°03' E 002°17'0 0.0
2018-Jun-18 10:43N 51°03' E 002°17'0 0.0
2018-Jun-18 10:25N 51°03' E 002°17'0 0.0
2018-Jun-18 09:58N 51°03' E 002°17'0 0.0
2018-Jun-18 09:28N 51°03' E 002°17'0 0.0
2018-Jun-18 09:01N 51°03' E 002°17'0 0.0
2018-Jun-18 08:25N 51°03' E 002°17'0 0.0
2018-Jun-18 07:55N 51°03' E 002°17'0 0.0
2018-Jun-18 07:28N 51°03' E 002°17'0 0.0
2018-Jun-18 06:55N 51°03' E 002°17'0 0.0
2018-Jun-18 06:28N 51°03' E 002°17'0 0.0
2018-Jun-18 05:16N 51°03' E 002°17'0 0.0
2018-Jun-18 04:58N 51°03' E 002°17'0 0.0
2018-Jun-18 04:31N 51°03' E 002°17'0 0.0
2018-Jun-18 02:36N 51°03' E 002°17'0 0.0
2018-Jun-18 02:28N 51°03' E 002°17'0 0.0
2018-Jun-18 01:43N 51°03' E 002°17'0 0.0
2018-Jun-18 01:28N 51°03' E 002°17'0 0.0
2018-Jun-18 00:00N 51°03' E 002°17'0 0.0
2018-Jun-17 23:22N 51°03' E 002°17'0 0.0
2018-Jun-17 22:13N 51°03' E 002°17'0 0.0
2018-Jun-17 21:37N 51°03' E 002°17'0 0.0
2018-Jun-17 21:31N 51°03' E 002°17'0 0.0
2018-Jun-17 20:58N 51°03' E 002°17'0 0.0
2018-Jun-17 20:28N 51°03' E 002°17'0 0.0
2018-Jun-17 19:55N 51°03' E 002°17'0 0.0
2018-Jun-17 19:25N 51°03' E 002°17'0 0.0
2018-Jun-17 18:52N 51°03' E 002°17'0 0.0
2018-Jun-17 18:16N 51°03' E 002°17'0 0.0
2018-Jun-17 17:58N 51°03' E 002°17'0 0.0
2018-Jun-17 17:24N 51°03' E 002°17'0 0.0
2018-Jun-17 17:00N 51°03' E 002°17'0 0.0
2018-Jun-17 16:28N 51°03' E 002°17'0 0.0
2018-Jun-17 15:25N 51°03' E 002°17'0 0.0
2018-Jun-17 15:00N 51°03' E 002°17'0 0.0
2018-Jun-17 14:15N 51°03' E 002°17'0 0.0
2018-Jun-17 13:55N 51°03' E 002°17'0 0.0
2018-Jun-17 13:15N 51°03' E 002°17'0 0.0
2018-Jun-17 12:49N 51°03' E 002°17'0 0.0
2018-Jun-17 12:30N 51°03' E 002°17'0 0.0
2018-Jun-17 12:01N 51°03' E 002°17'0 0.0
2018-Jun-17 11:27N 51°03' E 002°17'0 0.0
2018-Jun-17 11:00N 51°03' E 002°17'0 0.0
2018-Jun-17 10:31N 51°03' E 002°17'0 0.0
2018-Jun-17 09:24N 51°03' E 002°17'0 0.7
2018-Jun-17 08:57N 51°03' E 002°18'2 3.9
2018-Jun-17 08:27N 51°03' E 002°20'1 1.3
2018-Jun-17 08:00N 51°04' E 002°21'3 6.1
2018-Jun-17 07:28N 51°04' E 002°16'3 6.3
2018-Jun-17 07:00N 51°03' E 002°11'3 5.1
2018-Jun-17 06:30N 51°03' E 002°07'3 5.6
2018-Jun-17 05:56N 51°03' E 002°02'3 7.4
2018-Jun-17 05:30N 51°03' E 001°57'4 7.3
2018-Jun-17 05:00N 51°03' E 001°51'2 3.0
2018-Jun-17 04:30N 51°05' E 001°51'0 0.0
2018-Jun-17 04:00N 51°05' E 001°52'0 0.0
2018-Jun-17 03:30N 51°05' E 001°52'0 0.0
2018-Jun-17 03:00N 51°05' E 001°52'0 0.0
2018-Jun-17 02:27N 51°05' E 001°52'0 0.0
2018-Jun-17 01:57N 51°05' E 001°51'0 0.0
2018-Jun-17 01:27N 51°05' E 001°51'0 0.0
2018-Jun-17 01:00N 51°05' E 001°51'0 0.0
2018-Jun-17 00:30N 51°05' E 001°51'0 0.0
2018-Jun-16 23:54N 51°05' E 001°51'0 0.0
2018-Jun-16 23:27N 51°05' E 001°51'0 0.3
2018-Jun-16 22:57N 51°04' E 001°51'0 0.0
2018-Jun-16 22:30N 51°04' E 001°51'0 0.1
2018-Jun-16 21:54N 51°04' E 001°51'0 0.0
2018-Jun-16 21:30N 51°04' E 001°51'0 0.0
2018-Jun-16 19:51N 51°04' E 001°51'0 0.0
2018-Jun-16 19:30N 51°05' E 001°51'0 0.3
2018-Jun-16 19:00N 51°05' E 001°51'0 0.2
2018-Jun-16 18:30N 51°05' E 001°51'0 0.0
2018-Jun-16 17:36N 51°05' E 001°51'0 0.1
2018-Jun-16 17:30N 51°05' E 001°51'0 0.0
2018-Jun-16 16:57N 51°05' E 001°51'0 0.0
2018-Jun-16 16:21N 51°05' E 001°51'0 0.0
2018-Jun-16 14:42N 51°05' E 001°51'0 0.0
2018-Jun-16 14:30N 51°05' E 001°51'0 0.0
2018-Jun-16 13:24N 51°05' E 001°51'0 0.0
2018-Jun-16 12:54N 51°05' E 001°51'0 0.0
2018-Jun-16 11:57N 51°05' E 001°51'0 0.0
2018-Jun-16 11:27N 51°05' E 001°51'0 0.2
2018-Jun-16 10:39N 51°04' E 001°51'0 0.0
2018-Jun-16 10:27N 51°04' E 001°51'0 0.0
2018-Jun-16 10:00N 51°04' E 001°51'0 0.0
2018-Jun-16 09:30N 51°04' E 001°51'0 0.0
2018-Jun-16 09:00N 51°04' E 001°51'0 0.0
2018-Jun-16 08:27N 51°04' E 001°51'0 0.0
2018-Jun-16 08:00N 51°05' E 001°51'0 0.0
2018-Jun-16 07:30N 51°05' E 001°51'0 0.0
2018-Jun-16 07:00N 51°05' E 001°51'0 0.0
2018-Jun-16 06:30N 51°05' E 001°51'0 0.2
2018-Jun-16 06:00N 51°05' E 001°51'0 0.2
2018-Jun-16 05:30N 51°05' E 001°51'0 0.0
2018-Jun-16 05:00N 51°05' E 001°51'0 0.0
2018-Jun-16 04:30N 51°05' E 001°51'0 0.0
2018-Jun-16 04:00N 51°05' E 001°51'0 0.0
2018-Jun-16 03:27N 51°05' E 001°51'0 0.0
2018-Jun-16 03:00N 51°05' E 001°51'0 0.0
2018-Jun-16 02:30N 51°05' E 001°51'0 0.0
2018-Jun-16 02:00N 51°05' E 001°51'0 0.1
2018-Jun-16 01:30N 51°05' E 001°51'0 0.0
2018-Jun-16 00:54N 51°05' E 001°51'0 0.0
2018-Jun-16 00:27N 51°05' E 001°51'0 0.0
2018-Jun-16 00:00N 51°05' E 001°51'0 0.0
2018-Jun-15 23:27N 51°05' E 001°51'0 0.2
2018-Jun-15 23:00N 51°05' E 001°51'3 6.1
2018-Jun-15 22:30N 51°04' E 001°47'4 7.9
2018-Jun-15 22:00N 51°06' E 001°41'4 8.9
2018-Jun-15 21:31N 51°10' E 001°42'510.7
2018-Jun-15 21:01N 51°15' E 001°46'510.5
2018-Jun-15 20:30N 51°19' E 001°50'5 9.3
2018-Jun-15 20:00N 51°24' E 001°51'5 9.1
2018-Jun-15 19:31N 51°28' E 001°50'4 8.3
2018-Jun-15 19:00N 51°33' E 001°49'4 7.7
2018-Jun-15 18:30N 51°36' E 001°48'4 7.4
2018-Jun-15 18:00N 51°40' E 001°46'3 6.9
2018-Jun-15 17:31N 51°43' E 001°45'3 6.7
2018-Jun-15 17:01N 51°47' E 001°45'3 6.3
2018-Jun-15 16:30N 51°50' E 001°45'3 6.0
2018-Jun-15 16:01N 51°53' E 001°44'3 5.7
2018-Jun-15 15:31N 51°56' E 001°45'3 5.7
2018-Jun-15 15:00N 51°58' E 001°46'3 5.6
2018-Jun-15 14:30N 52°01' E 001°46'3 5.4
2018-Jun-15 14:00N 52°04' E 001°47'3 5.9
2018-Jun-15 13:31N 52°07' E 001°48'3 6.8
2018-Jun-15 13:00N 52°10' E 001°48'22 8.8
2018-Jun-15 10:30N 52°32' E 001°53'510.0
2018-Jun-15 10:00N 52°37' E 001°54'510.6
2018-Jun-15 09:30N 52°42' E 001°54'5 9.7
2018-Jun-15 09:00N 52°46' E 001°50'611.1
2018-Jun-15 08:29N 52°50' E 001°42'511.0
2018-Jun-15 08:00N 52°53' E 001°35'611.3
2018-Jun-15 07:31N 52°57' E 001°29'611.0
2018-Jun-15 07:00N 53°01' E 001°21'510.4
2018-Jun-15 06:30N 53°03' E 001°14'51 9.1
2018-Jun-15 00:52N 53°34' E 000°05'3 9.0
2018-Jun-15 00:30N 53°35' E 000°00'510.7
2018-Jun-15 00:00N 53°38' W 000°08'2 4.5
2018-Jun-14 23:30N 53°39' W 000°11'0 0.1
2018-Jun-14 23:00N 53°39' W 000°11'0 0.2
2018-Jun-14 22:30N 53°39' W 000°11'0 0.2
2018-Jun-14 22:00N 53°39' W 000°11'5 9.2
2018-Jun-14 21:31N 53°43' W 000°15'611.2
2018-Jun-14 21:01N 53°42' W 000°24'510.0
2018-Jun-14 20:30N 53°41' W 000°32'3 0.1
2018-Jun-13 04:50N 53°44' W 000°36'3 9.2
2018-Jun-13 04:30N 53°41' W 000°33'4 6.8
2018-Jun-13 03:59N 53°42' W 000°27'4 9.3
2018-Jun-13 03:30N 53°43' W 000°20'4 7.8
2018-Jun-13 03:00N 53°42' W 000°14'5 9.7
2018-Jun-13 02:30N 53°38' W 000°08'20 3.9
2018-Jun-12 21:18N 53°36' E 000°26'37 3.9
2018-Jun-12 11:37N 53°06' E 001°03'110.5
2018-Jun-12 11:30N 53°05' E 001°05'510.5
2018-Jun-12 11:00N 53°03' E 001°13'510.2
2018-Jun-12 10:30N 53°01' E 001°20'5 9.9
2018-Jun-12 10:00N 52°58' E 001°27'5 9.5
2018-Jun-12 09:30N 52°55' E 001°33'4 8.8
2018-Jun-12 09:00N 52°52' E 001°39'5 9.6
2018-Jun-12 08:30N 52°49' E 001°45'4 9.0
2018-Jun-12 08:00N 52°46' E 001°50'19 7.6
2018-Jun-12 05:30N 52°27' E 001°53'5 8.2
2018-Jun-12 04:56N 52°23' E 001°53'4 9.2
2018-Jun-12 04:28N 52°18' E 001°52'5 9.9
2018-Jun-12 03:59N 52°14' E 001°51'510.6
2018-Jun-12 03:30N 52°09' E 001°50'611.2
2018-Jun-12 03:00N 52°03' E 001°49'611.5
2018-Jun-12 02:30N 51°57' E 001°49'611.6
2018-Jun-12 02:00N 51°52' E 001°48'4 8.9
2018-Jun-12 01:30N 51°50' E 001°41'611.4
2018-Jun-12 01:00N 51°48' E 001°32'612.2
2018-Jun-12 00:30N 51°44' E 001°25'611.9
2018-Jun-12 00:00N 51°40' E 001°17'611.4
2018-Jun-11 23:30N 51°36' E 001°12'510.9
2018-Jun-11 23:00N 51°33' E 001°04'510.0
2018-Jun-11 22:30N 51°31' E 000°57'4 7.8
2018-Jun-11 22:00N 51°30' E 000°51'4 8.8
2018-Jun-11 21:30N 51°30' E 000°44'5 9.2
2018-Jun-11 21:00N 51°30' E 000°36'4 8.9
2018-Jun-11 20:30N 51°30' E 000°29'4 7.9
2018-Jun-11 20:01N 51°27' E 000°25'3 5.8
2018-Jun-11 19:30N 51°27' E 000°20'1 1.1
2018-Jun-11 19:00N 51°27' E 000°21'0 0.0
2018-Jun-11 18:30N 51°27' E 000°21'0 0.0
2018-Jun-11 18:01N 51°27' E 000°21'0 0.0
2018-Jun-11 17:31N 51°27' E 000°21'  
Track history (hours):
 
Tides and Currents Weather Stations Pressure Air Temp Water Temp Dewpoint Dewpoint Depression Visibility Wind Speed Wind Dir Waves Ship Positions

Suderau

Last reported at 2018-Jun-21 17:11 UTC. Time now 2018-Jun-21 18:10 UTC.
Position N 50°29' W 000°56'.

Length 88 m; draft 3.8 m.

Type: Cargo ship. MMSI: 304797000.

Date/timePositionNaut miles runAvg speedWind from/ knotsBaromVisibWave heightAir tempDewpointWater temp
2018-Jun-21 17:11N 50°29' W 000°56'3 9.0
2018-Jun-21 16:52N 50°30' W 000°51'3 8.6
2018-Jun-21 16:30N 50°30' W 000°46'4 8.0
2018-Jun-21 16:00N 50°30' W 000°40'4 7.2
2018-Jun-21 15:30N 50°31' W 000°34'14 7.5
2018-Jun-21 13:38N 50°31' W 000°12'7 8.4
2018-Jun-21 12:50N 50°32' W 000°02'3 9.0
2018-Jun-21 12:29N 50°33' E 000°03'5 9.4
2018-Jun-21 11:59N 50°34' E 000°10'510.0
2018-Jun-21 11:30N 50°36' E 000°18'510.6
2018-Jun-21 11:00N 50°37' E 000°25'510.9
2018-Jun-21 10:30N 50°39' E 000°34'510.8
2018-Jun-21 10:00N 50°42' E 000°41'510.6
2018-Jun-21 09:30N 50°45' E 000°48'510.2
2018-Jun-21 09:00N 50°48' E 000°55'5 9.7
2018-Jun-21 08:30N 50°50' E 001°01'5 9.3
2018-Jun-21 08:00N 50°53' E 001°07'4 8.8
2018-Jun-21 07:30N 50°56' E 001°12'4 8.4
2018-Jun-21 07:00N 50°59' E 001°17'4 7.7
2018-Jun-21 06:30N 51°01' E 001°22'4 7.2
2018-Jun-21 06:00N 51°04' E 001°26'4 7.3
2018-Jun-21 05:30N 51°06' E 001°30'4 7.4
2018-Jun-21 05:00N 51°08' E 001°35'4 7.7
2018-Jun-21 04:30N 51°11' E 001°40'4 8.0
2018-Jun-21 04:00N 51°14' E 001°44'5 9.3
2018-Jun-21 03:30N 51°17' E 001°48'5 9.9
2018-Jun-21 03:00N 51°22' E 001°52'510.6
2018-Jun-21 02:30N 51°26' E 001°57'510.6
2018-Jun-21 02:00N 51°30' E 002°02'510.7
2018-Jun-21 01:30N 51°34' E 002°08'510.5
2018-Jun-21 00:59N 51°38' E 002°14'510.3
2018-Jun-21 00:30N 51°42' E 002°20'5 9.8
2018-Jun-20 23:56N 51°45' E 002°26'30 7.9
2018-Jun-20 20:07N 52°03' E 003°06'2 7.4
2018-Jun-20 19:50N 52°03' E 003°09'8 7.1
2018-Jun-20 18:44N 52°04' E 003°22'2 7.2
2018-Jun-20 18:24N 52°03' E 003°26'4 7.4
2018-Jun-20 17:56N 52°03' E 003°31'3 7.6
2018-Jun-20 17:29N 52°03' E 003°37'4 8.0
2018-Jun-20 17:00N 52°03' E 003°43'4 8.3
2018-Jun-20 16:30N 52°03' E 003°50'4 7.4
2018-Jun-20 16:00N 52°02' E 003°55'510.6
2018-Jun-20 15:30N 51°60' E 004°03'611.6
2018-Jun-20 15:00N 51°57' E 004°11'611.4
2018-Jun-20 14:30N 51°54' E 004°19'4 8.3
2018-Jun-20 14:00N 51°54' E 004°26'0 0.4
2018-Jun-20 13:30N 51°54' E 004°26'0 0.0
2018-Jun-20 13:00N 51°54' E 004°26'0 0.0
2018-Jun-20 12:30N 51°54' E 004°26'0 0.0
2018-Jun-20 12:00N 51°54' E 004°26'0 0.0
2018-Jun-20 11:30N 51°54' E 004°26'0 0.0
2018-Jun-20 11:00N 51°54' E 004°26'0 0.0
2018-Jun-20 10:30N 51°54' E 004°26'0 0.0
2018-Jun-20 10:00N 51°54' E 004°26'0 0.0
2018-Jun-20 09:30N 51°54' E 004°26'0 0.0
2018-Jun-20 09:00N 51°54' E 004°26'0 0.0
2018-Jun-20 08:27N 51°54' E 004°26'0 0.0
2018-Jun-20 07:57N 51°54' E 004°26'0 0.0
2018-Jun-20 07:30N 51°54' E 004°26'0 0.0
2018-Jun-20 07:00N 51°54' E 004°26'0 0.0
2018-Jun-20 06:30N 51°54' E 004°26'0 0.0
2018-Jun-20 06:00N 51°54' E 004°26'0 0.0
2018-Jun-20 05:30N 51°54' E 004°26'0 0.0
2018-Jun-20 05:00N 51°54' E 004°26'0 0.0
2018-Jun-20 04:30N 51°54' E 004°26'0 0.0
2018-Jun-20 04:00N 51°54' E 004°26'0 0.0
2018-Jun-20 03:29N 51°54' E 004°26'0 0.0
2018-Jun-20 03:00N 51°54' E 004°26'0 0.4
2018-Jun-20 02:30N 51°54' E 004°26'3 5.5
2018-Jun-20 02:00N 51°54' E 004°22'4 8.5
2018-Jun-20 01:30N 51°55' E 004°15'4 8.1
2018-Jun-20 01:00N 51°57' E 004°10'4 7.4
2018-Jun-20 00:30N 51°59' E 004°04'4 7.7
2018-Jun-20 00:00N 51°60' E 003°58'5 9.9
2018-Jun-19 23:30N 51°59' E 003°50'5 9.9
2018-Jun-19 22:57N 51°58' E 003°42'510.2
2018-Jun-19 22:30N 51°57' E 003°35'510.3
2018-Jun-19 22:00N 51°55' E 003°27'510.3
2018-Jun-19 21:29N 51°51' E 003°21'711.2
2018-Jun-19 20:53N 51°45' E 003°16'410.5
2018-Jun-19 20:30N 51°42' E 003°13'611.6
2018-Jun-19 19:59N 51°36' E 003°11'611.4
2018-Jun-19 19:25N 51°31' E 003°05'511.5
2018-Jun-19 18:57N 51°28' E 002°57'511.9
2018-Jun-19 18:30N 51°25' E 002°50'611.3
2018-Jun-19 17:59N 51°21' E 002°44'611.4
2018-Jun-19 17:30N 51°16' E 002°40'611.3
2018-Jun-19 17:00N 51°11' E 002°36'611.2
2018-Jun-19 16:28N 51°06' E 002°30'511.6
2018-Jun-19 15:59N 51°04' E 002°22'1 2.5
2018-Jun-19 15:26N 51°03' E 002°21'3 5.5
2018-Jun-19 14:58N 51°03' E 002°17'0 0.0
2018-Jun-19 14:25N 51°03' E 002°17'0 0.0
2018-Jun-19 13:40N 51°03' E 002°17'0 0.0
2018-Jun-19 13:28N 51°03' E 002°17'0 0.0
2018-Jun-19 12:58N 51°03' E 002°17'0 0.0
2018-Jun-19 12:13N 51°03' E 002°17'0 0.0
2018-Jun-19 11:46N 51°03' E 002°17'0 0.0
2018-Jun-19 11:25N 51°03' E 002°17'0 0.0
2018-Jun-19 10:43N 51°03' E 002°17'0 0.0
2018-Jun-19 10:28N 51°03' E 002°17'0 0.0
2018-Jun-19 09:49N 51°03' E 002°17'0 0.0
2018-Jun-19 09:16N 51°03' E 002°17'0 0.0
2018-Jun-19 08:52N 51°03' E 002°17'0 0.0
2018-Jun-19 07:55N 51°03' E 002°17'0 0.0
2018-Jun-19 07:19N 51°03' E 002°17'0 0.0
2018-Jun-19 06:46N 51°03' E 002°17'0 0.0
2018-Jun-19 05:34N 51°03' E 002°17'0 0.0
2018-Jun-19 05:25N 51°03' E 002°17'0 0.0
2018-Jun-19 04:58N 51°03' E 002°17'0 0.0
2018-Jun-19 03:13N 51°03' E 002°17'0 0.0
2018-Jun-19 02:58N 51°03' E 002°17'0 0.0
2018-Jun-19 02:04N 51°03' E 002°17'0 0.0
2018-Jun-19 00:28N 51°03' E 002°17'0 0.0
2018-Jun-18 23:46N 51°03' E 002°17'0 0.0
2018-Jun-18 22:34N 51°03' E 002°17'0 0.0
2018-Jun-18 22:28N 51°03' E 002°17'0 0.0
2018-Jun-18 21:46N 51°03' E 002°17'0 0.0
2018-Jun-18 21:10N 51°03' E 002°17'0 0.0
2018-Jun-18 20:58N 51°03' E 002°17'0 0.0
2018-Jun-18 20:28N 51°03' E 002°17'0 0.0
2018-Jun-18 19:55N 51°03' E 002°17'0 0.0
2018-Jun-18 18:55N 51°03' E 002°17'0 0.0
2018-Jun-18 18:28N 51°03' E 002°17'0 0.0
2018-Jun-18 17:10N 51°03' E 002°17'0 0.0
2018-Jun-18 16:58N 51°03' E 002°17'0 0.0
2018-Jun-18 16:28N 51°03' E 002°17'0 0.0
2018-Jun-18 15:58N 51°03' E 002°17'0 0.0
2018-Jun-18 15:04N 51°03' E 002°17'0 0.0
2018-Jun-18 14:58N 51°03' E 002°17'0 0.0
2018-Jun-18 14:28N 51°03' E 002°17'0 0.0
2018-Jun-18 13:55N 51°03' E 002°17'0 0.0
2018-Jun-18 13:10N 51°03' E 002°17'0 0.0
2018-Jun-18 12:55N 51°03' E 002°17'0 0.0
2018-Jun-18 12:10N 51°03' E 002°17'0 0.0
2018-Jun-18 11:49N 51°03' E 002°17'0 0.0
2018-Jun-18 11:25N 51°03' E 002°17'0 0.0
2018-Jun-18 10:43N 51°03' E 002°17'0 0.0
2018-Jun-18 10:25N 51°03' E 002°17'0 0.0
2018-Jun-18 09:58N 51°03' E 002°17'0 0.0
2018-Jun-18 09:28N 51°03' E 002°17'0 0.0
2018-Jun-18 09:01N 51°03' E 002°17'0 0.0
2018-Jun-18 08:25N 51°03' E 002°17'0 0.0
2018-Jun-18 07:55N 51°03' E 002°17'0 0.0
2018-Jun-18 07:28N 51°03' E 002°17'0 0.0
2018-Jun-18 06:55N 51°03' E 002°17'0 0.0
2018-Jun-18 06:28N 51°03' E 002°17'0 0.0
2018-Jun-18 05:16N 51°03' E 002°17'0 0.0
2018-Jun-18 04:58N 51°03' E 002°17'0 0.0
2018-Jun-18 04:31N 51°03' E 002°17'0 0.0
2018-Jun-18 02:36N 51°03' E 002°17'0 0.0
2018-Jun-18 02:28N 51°03' E 002°17'0 0.0
2018-Jun-18 01:43N 51°03' E 002°17'0 0.0
2018-Jun-18 01:28N 51°03' E 002°17'0 0.0
2018-Jun-18 00:00N 51°03' E 002°17'0 0.0
2018-Jun-17 23:22N 51°03' E 002°17'0 0.0
2018-Jun-17 22:13N 51°03' E 002°17'0 0.0
2018-Jun-17 21:37N 51°03' E 002°17'0 0.0
2018-Jun-17 21:31N 51°03' E 002°17'0 0.0
2018-Jun-17 20:58N 51°03' E 002°17'0 0.0
2018-Jun-17 20:28N 51°03' E 002°17'0 0.0
2018-Jun-17 19:55N 51°03' E 002°17'0 0.0
2018-Jun-17 19:25N 51°03' E 002°17'0 0.0
2018-Jun-17 18:52N 51°03' E 002°17'0 0.0
2018-Jun-17 18:16N 51°03' E 002°17'0 0.0
2018-Jun-17 17:58N 51°03' E 002°17'0 0.0
2018-Jun-17 17:24N 51°03' E 002°17'0 0.0
2018-Jun-17 17:00N 51°03' E 002°17'0 0.0
2018-Jun-17 16:28N 51°03' E 002°17'0 0.0
2018-Jun-17 15:25N 51°03' E 002°17'0 0.0
2018-Jun-17 15:00N 51°03' E 002°17'0 0.0
2018-Jun-17 14:15N 51°03' E 002°17'0 0.0
2018-Jun-17 13:55N 51°03' E 002°17'0 0.0
2018-Jun-17 13:15N 51°03' E 002°17'0 0.0
2018-Jun-17 12:49N 51°03' E 002°17'0 0.0
2018-Jun-17 12:30N 51°03' E 002°17'0 0.0
2018-Jun-17 12:01N 51°03' E 002°17'0 0.0
2018-Jun-17 11:27N 51°03' E 002°17'0 0.0
2018-Jun-17 11:00N 51°03' E 002°17'0 0.0
2018-Jun-17 10:31N 51°03' E 002°17'0 0.0
2018-Jun-17 09:24N 51°03' E 002°17'0 0.7
2018-Jun-17 08:57N 51°03' E 002°18'2 3.9
2018-Jun-17 08:27N 51°03' E 002°20'1 1.3
2018-Jun-17 08:00N 51°04' E 002°21'3 6.1
2018-Jun-17 07:28N 51°04' E 002°16'3 6.3
2018-Jun-17 07:00N 51°03' E 002°11'3 5.1
2018-Jun-17 06:30N 51°03' E 002°07'3 5.6
2018-Jun-17 05:56N 51°03' E 002°02'3 7.4
2018-Jun-17 05:30N 51°03' E 001°57'4 7.3
2018-Jun-17 05:00N 51°03' E 001°51'2 3.0
2018-Jun-17 04:30N 51°05' E 001°51'0 0.0
2018-Jun-17 04:00N 51°05' E 001°52'0 0.0
2018-Jun-17 03:30N 51°05' E 001°52'0 0.0
2018-Jun-17 03:00N 51°05' E 001°52'0 0.0
2018-Jun-17 02:27N 51°05' E 001°52'0 0.0
2018-Jun-17 01:57N 51°05' E 001°51'0 0.0
2018-Jun-17 01:27N 51°05' E 001°51'0 0.0
2018-Jun-17 01:00N 51°05' E 001°51'0 0.0
2018-Jun-17 00:30N 51°05' E 001°51'0 0.0
2018-Jun-16 23:54N 51°05' E 001°51'0 0.0
2018-Jun-16 23:27N 51°05' E 001°51'0 0.3
2018-Jun-16 22:57N 51°04' E 001°51'0 0.0
2018-Jun-16 22:30N 51°04' E 001°51'0 0.1
2018-Jun-16 21:54N 51°04' E 001°51'0 0.0
2018-Jun-16 21:30N 51°04' E 001°51'0 0.0
2018-Jun-16 19:51N 51°04' E 001°51'0 0.0
2018-Jun-16 19:30N 51°05' E 001°51'0 0.3
2018-Jun-16 19:00N 51°05' E 001°51'0 0.2
2018-Jun-16 18:30N 51°05' E 001°51'0 0.0
2018-Jun-16 17:36N 51°05' E 001°51'0 0.1
2018-Jun-16 17:30N 51°05' E 001°51'0 0.0
2018-Jun-16 16:57N 51°05' E 001°51'0 0.0
2018-Jun-16 16:21N 51°05' E 001°51'0 0.0
2018-Jun-16 14:42N 51°05' E 001°51'0 0.0
2018-Jun-16 14:30N 51°05' E 001°51'0 0.0
2018-Jun-16 13:24N 51°05' E 001°51'0 0.0
2018-Jun-16 12:54N 51°05' E 001°51'0 0.0
2018-Jun-16 11:57N 51°05' E 001°51'0 0.0
2018-Jun-16 11:27N 51°05' E 001°51'0 0.2
2018-Jun-16 10:39N 51°04' E 001°51'0 0.0
2018-Jun-16 10:27N 51°04' E 001°51'0 0.0
2018-Jun-16 10:00N 51°04' E 001°51'0 0.0
2018-Jun-16 09:30N 51°04' E 001°51'0 0.0
2018-Jun-16 09:00N 51°04' E 001°51'0 0.0
2018-Jun-16 08:27N 51°04' E 001°51'0 0.0
2018-Jun-16 08:00N 51°05' E 001°51'0 0.0
2018-Jun-16 07:30N 51°05' E 001°51'0 0.0
2018-Jun-16 07:00N 51°05' E 001°51'0 0.0
2018-Jun-16 06:30N 51°05' E 001°51'0 0.2
2018-Jun-16 06:00N 51°05' E 001°51'0 0.2
2018-Jun-16 05:30N 51°05' E 001°51'0 0.0
2018-Jun-16 05:00N 51°05' E 001°51'0 0.0
2018-Jun-16 04:30N 51°05' E 001°51'0 0.0
2018-Jun-16 04:00N 51°05' E 001°51'0 0.0
2018-Jun-16 03:27N 51°05' E 001°51'0 0.0
2018-Jun-16 03:00N 51°05' E 001°51'0 0.0
2018-Jun-16 02:30N 51°05' E 001°51'0 0.0
2018-Jun-16 02:00N 51°05' E 001°51'0 0.1
2018-Jun-16 01:30N 51°05' E 001°51'0 0.0
2018-Jun-16 00:54N 51°05' E 001°51'0 0.0
2018-Jun-16 00:27N 51°05' E 001°51'0 0.0
2018-Jun-16 00:00N 51°05' E 001°51'0 0.0
2018-Jun-15 23:27N 51°05' E 001°51'0 0.2
2018-Jun-15 23:00N 51°05' E 001°51'3 6.1
2018-Jun-15 22:30N 51°04' E 001°47'4 7.9
2018-Jun-15 22:00N 51°06' E 001°41'4 8.9
2018-Jun-15 21:31N 51°10' E 001°42'510.7
2018-Jun-15 21:01N 51°15' E 001°46'510.5
2018-Jun-15 20:30N 51°19' E 001°50'5 9.3
2018-Jun-15 20:00N 51°24' E 001°51'5 9.1
2018-Jun-15 19:31N 51°28' E 001°50'4 8.3
2018-Jun-15 19:00N 51°33' E 001°49'4 7.7
2018-Jun-15 18:30N 51°36' E 001°48'4 7.4
2018-Jun-15 18:00N 51°40' E 001°46'3 6.9
2018-Jun-15 17:31N 51°43' E 001°45'3 6.7
2018-Jun-15 17:01N 51°47' E 001°45'3 6.3
2018-Jun-15 16:30N 51°50' E 001°45'3 6.0
2018-Jun-15 16:01N 51°53' E 001°44'3 5.7
2018-Jun-15 15:31N 51°56' E 001°45'3 5.7
2018-Jun-15 15:00N 51°58' E 001°46'3 5.6
2018-Jun-15 14:30N 52°01' E 001°46'3 5.4
2018-Jun-15 14:00N 52°04' E 001°47'3 5.9
2018-Jun-15 13:31N 52°07' E 001°48'3 6.8
2018-Jun-15 13:00N 52°10' E 001°48'22 8.8
2018-Jun-15 10:30N 52°32' E 001°53'510.0
2018-Jun-15 10:00N 52°37' E 001°54'510.6
2018-Jun-15 09:30N 52°42' E 001°54'5 9.7
2018-Jun-15 09:00N 52°46' E 001°50'611.1
2018-Jun-15 08:29N 52°50' E 001°42'511.0
2018-Jun-15 08:00N 52°53' E 001°35'611.3
2018-Jun-15 07:31N 52°57' E 001°29'611.0
2018-Jun-15 07:00N 53°01' E 001°21'510.4
2018-Jun-15 06:30N 53°03' E 001°14'51 9.1
2018-Jun-15 00:52N 53°34' E 000°05'3 9.0
2018-Jun-15 00:30N 53°35' E 000°00'510.7
2018-Jun-15 00:00N 53°38' W 000°08'2 4.5
2018-Jun-14 23:30N 53°39' W 000°11'0 0.1
2018-Jun-14 23:00N 53°39' W 000°11'0 0.2
2018-Jun-14 22:30N 53°39' W 000°11'0 0.2
2018-Jun-14 22:00N 53°39' W 000°11'5 9.2
2018-Jun-14 21:31N 53°43' W 000°15'611.2
2018-Jun-14 21:01N 53°42' W 000°24'510.0
2018-Jun-14 20:30N 53°41' W 000°32'3 0.1
2018-Jun-13 04:50N 53°44' W 000°36'3 9.2
2018-Jun-13 04:30N 53°41' W 000°33'4 6.8
2018-Jun-13 03:59N 53°42' W 000°27'4 9.3
2018-Jun-13 03:30N 53°43' W 000°20'4 7.8
2018-Jun-13 03:00N 53°42' W 000°14'5 9.7
2018-Jun-13 02:30N 53°38' W 000°08'20 3.9
2018-Jun-12 21:18N 53°36' E 000°26'37 3.9
2018-Jun-12 11:37N 53°06' E 001°03'110.5
2018-Jun-12 11:30N 53°05' E 001°05'510.5
2018-Jun-12 11:00N 53°03' E 001°13'510.2
2018-Jun-12 10:30N 53°01' E 001°20'5 9.9
2018-Jun-12 10:00N 52°58' E 001°27'5 9.5
2018-Jun-12 09:30N 52°55' E 001°33'4 8.8
2018-Jun-12 09:00N 52°52' E 001°39'5 9.6
2018-Jun-12 08:30N 52°49' E 001°45'4 9.0
2018-Jun-12 08:00N 52°46' E 001°50'19 7.6
2018-Jun-12 05:30N 52°27' E 001°53'5 8.2
2018-Jun-12 04:56N 52°23' E 001°53'4 9.2
2018-Jun-12 04:28N 52°18' E 001°52'5 9.9
2018-Jun-12 03:59N 52°14' E 001°51'510.6
2018-Jun-12 03:30N 52°09' E 001°50'611.2
2018-Jun-12 03:00N 52°03' E 001°49'611.5
2018-Jun-12 02:30N 51°57' E 001°49'611.6
2018-Jun-12 02:00N 51°52' E 001°48'4 8.9
2018-Jun-12 01:30N 51°50' E 001°41'611.4
2018-Jun-12 01:00N 51°48' E 001°32'612.2
2018-Jun-12 00:30N 51°44' E 001°25'611.9
2018-Jun-12 00:00N 51°40' E 001°17'611.4
2018-Jun-11 23:30N 51°36' E 001°12'510.9
2018-Jun-11 23:00N 51°33' E 001°04'510.0
2018-Jun-11 22:30N 51°31' E 000°57'4 7.8
2018-Jun-11 22:00N 51°30' E 000°51'4 8.8
2018-Jun-11 21:30N 51°30' E 000°44'5 9.2
2018-Jun-11 21:00N 51°30' E 000°36'4 8.9
2018-Jun-11 20:30N 51°30' E 000°29'4 7.9
2018-Jun-11 20:01N 51°27' E 000°25'3 5.8
2018-Jun-11 19:30N 51°27' E 000°20'1 1.1
2018-Jun-11 19:00N 51°27' E 000°21'0 0.0
2018-Jun-11 18:30N 51°27' E 000°21'0 0.0
2018-Jun-11 18:01N 51°27' E 000°21'0 0.0
2018-Jun-11 17:31N 51°27' E 000°21'  

Dump ship's entire track history